createdAt,value
2017-09-19T00:00:50.537Z,2.63
2017-09-19T00:03:18.095Z,3.33
2017-09-19T00:05:45.725Z,3.10
2017-09-19T00:08:13.298Z,3.13
2017-09-19T00:10:40.910Z,2.70
2017-09-19T00:13:08.472Z,2.83
2017-09-19T00:15:36.445Z,2.87
2017-09-19T00:18:03.985Z,2.90
2017-09-19T00:20:31.514Z,3.10
2017-09-19T00:22:59.063Z,2.43
2017-09-19T00:25:26.641Z,3.00
2017-09-19T00:27:54.229Z,2.67
2017-09-19T00:30:22.863Z,2.97
2017-09-19T00:32:50.822Z,2.40
2017-09-19T00:35:18.477Z,2.80
2017-09-19T00:37:46.017Z,2.90
2017-09-19T00:40:13.577Z,2.70
2017-09-19T00:42:41.147Z,2.63
2017-09-19T00:45:08.751Z,2.90
2017-09-19T00:47:36.305Z,3.13
2017-09-19T00:50:04.219Z,2.85
2017-09-19T00:52:31.763Z,3.40
2017-09-19T00:54:59.308Z,3.15
2017-09-19T00:57:26.996Z,2.72
2017-09-19T00:59:54.530Z,2.73
2017-09-19T01:02:22.474Z,2.67
2017-09-19T01:04:50.022Z,2.70
2017-09-19T01:07:17.553Z,3.40
2017-09-19T01:09:45.131Z,2.83
2017-09-19T01:12:12.686Z,2.40
2017-09-19T01:14:40.616Z,2.30
2017-09-19T01:17:08.336Z,2.47
2017-09-19T01:19:35.917Z,2.37
2017-09-19T01:22:03.503Z,2.80
2017-09-19T01:24:31.160Z,2.90
2017-09-19T01:26:58.736Z,2.67
2017-09-19T01:29:26.305Z,3.00
2017-09-19T01:31:54.179Z,2.80
2017-09-19T01:34:21.732Z,3.13
2017-09-19T01:36:49.262Z,2.63
2017-09-19T01:39:16.856Z,3.30
2017-09-19T01:41:44.441Z,3.30
2017-09-19T01:44:12.149Z,2.97
2017-09-19T01:46:39.690Z,2.80
2017-09-19T01:49:07.592Z,2.70
2017-09-19T01:51:35.132Z,2.50
2017-09-19T01:54:02.722Z,3.17
2017-09-19T01:56:30.266Z,2.60
2017-09-19T01:58:57.814Z,2.50
2017-09-19T02:01:25.380Z,2.53
2017-09-19T02:03:52.970Z,3.13
2017-09-19T02:06:20.937Z,2.80
2017-09-19T02:08:48.537Z,3.20
2017-09-19T02:11:16.083Z,3.23
2017-09-19T02:13:43.750Z,3.23
2017-09-19T02:16:11.303Z,3.00
2017-09-19T02:18:38.874Z,2.70
2017-09-19T02:21:06.417Z,3.23
2017-09-19T02:23:34.366Z,3.20
2017-09-19T02:26:01.925Z,3.30
2017-09-19T02:28:29.482Z,3.37
2017-09-19T02:30:57.058Z,3.43
2017-09-19T02:33:24.609Z,3.30
2017-09-19T02:35:52.201Z,3.30
2017-09-19T02:38:19.781Z,3.57
2017-09-19T02:40:47.779Z,4.13
2017-09-19T02:43:15.667Z,3.40
2017-09-19T02:45:43.208Z,3.23
2017-09-19T02:48:10.841Z,3.43
2017-09-19T02:50:38.939Z,3.20
2017-09-19T02:53:06.487Z,3.47
2017-09-19T02:55:34.064Z,3.50
2017-09-19T02:58:01.927Z,3.30
2017-09-19T03:00:29.482Z,3.27
2017-09-19T03:02:57.022Z,3.60
2017-09-19T03:05:24.582Z,4.07
2017-09-19T03:07:52.125Z,3.07
2017-09-19T03:10:20.029Z,3.70
2017-09-19T03:12:47.575Z,3.87
2017-09-19T03:15:15.121Z,3.77
2017-09-19T03:17:42.679Z,4.40
2017-09-19T03:20:10.215Z,4.23
2017-09-19T03:22:37.745Z,3.77
2017-09-19T03:25:05.322Z,3.70
2017-09-19T03:27:32.864Z,4.10
2017-09-19T03:30:00.800Z,3.60
2017-09-19T03:32:28.350Z,4.37
2017-09-19T03:34:55.899Z,4.10
2017-09-19T03:37:23.482Z,3.93
2017-09-19T03:39:52.273Z,4.43
2017-09-19T03:44:53.856Z,3.83
2017-09-19T03:47:21.682Z,4.67
2017-09-19T03:49:49.243Z,3.80
2017-09-19T03:52:16.927Z,4.13
2017-09-19T03:54:44.503Z,3.80
2017-09-19T03:57:12.061Z,4.10
2017-09-19T03:59:39.926Z,3.80
2017-09-19T04:02:07.489Z,3.97
2017-09-19T04:04:35.028Z,3.80
2017-09-19T04:07:02.624Z,3.60
2017-09-19T04:09:30.194Z,3.80
2017-09-19T04:11:58.142Z,4.07
2017-09-19T04:14:25.678Z,3.70
2017-09-19T04:16:53.281Z,4.00
2017-09-19T04:19:20.874Z,3.70
2017-09-19T04:21:48.437Z,3.90
2017-09-19T04:24:16.359Z,4.37
2017-09-19T04:26:43.937Z,3.00
2017-09-19T04:29:11.492Z,3.10
2017-09-19T04:31:39.100Z,3.40
2017-09-19T04:34:06.644Z,3.30
2017-09-19T04:36:34.663Z,3.10
2017-09-19T04:39:02.240Z,3.30
2017-09-19T04:41:29.799Z,2.90
2017-09-19T04:43:57.385Z,3.17
2017-09-19T04:46:24.941Z,3.17
2017-09-19T04:48:52.881Z,3.20
2017-09-19T04:51:20.481Z,3.07
2017-09-19T04:53:48.035Z,3.27
2017-09-19T04:56:15.724Z,3.10
2017-09-19T04:58:43.276Z,3.10
2017-09-19T05:01:11.210Z,3.30
2017-09-19T05:06:13.180Z,3.80
2017-09-19T05:08:40.749Z,3.33
2017-09-19T05:11:08.297Z,4.00
2017-09-19T05:13:36.001Z,4.10
2017-09-19T05:16:03.571Z,3.90
2017-09-19T05:18:36.536Z,3.80
2017-09-19T05:21:04.259Z,3.97
2017-09-19T05:23:31.810Z,3.87
2017-09-19T05:25:59.662Z,4.50
2017-09-19T05:28:27.218Z,4.53
2017-09-19T05:30:54.774Z,4.90
2017-09-19T05:33:22.359Z,5.30
2017-09-19T05:35:49.918Z,5.10
2017-09-19T05:38:17.880Z,5.37
2017-09-19T05:40:46.507Z,5.00
2017-09-19T05:43:14.079Z,5.20
2017-09-19T05:45:42.788Z,5.80
2017-09-19T05:48:10.329Z,5.50
2017-09-19T05:50:38.546Z,5.20
2017-09-19T05:53:06.096Z,5.13
2017-09-19T05:55:33.656Z,5.33
2017-09-19T05:58:01.394Z,5.10
2017-09-19T06:00:28.966Z,5.90
2017-09-19T06:02:56.864Z,5.90
2017-09-19T06:05:24.419Z,4.87
2017-09-19T06:07:51.970Z,4.80
2017-09-19T06:10:19.873Z,5.80
2017-09-19T06:12:47.426Z,5.30
2017-09-19T06:15:14.993Z,5.73
2017-09-19T06:17:42.557Z,6.30
2017-09-19T06:20:10.132Z,5.63
2017-09-19T06:22:38.190Z,6.63
2017-09-19T06:25:05.697Z,6.87
2017-09-19T06:27:33.588Z,6.67
2017-09-19T06:30:02.103Z,7.40
2017-09-19T06:32:30.244Z,6.50
2017-09-19T06:34:57.870Z,7.57
2017-09-19T06:37:25.776Z,7.40
2017-09-19T06:39:53.336Z,6.50
2017-09-19T06:42:20.951Z,6.50
2017-09-19T06:44:48.534Z,6.37
2017-09-19T06:47:16.087Z,6.30
2017-09-19T06:49:43.995Z,6.00
2017-09-19T06:52:11.549Z,6.13
2017-09-19T06:54:39.115Z,5.80
2017-09-19T06:57:06.672Z,5.10
2017-09-19T06:59:34.664Z,4.70
2017-09-19T07:02:02.230Z,4.90
2017-09-19T07:04:29.787Z,5.37
2017-09-19T07:06:57.365Z,4.93
2017-09-19T07:09:24.911Z,5.10
2017-09-19T07:11:52.874Z,4.43
2017-09-19T07:14:20.414Z,5.20
2017-09-19T07:16:48.643Z,5.23
2017-09-19T07:19:16.233Z,5.50
2017-09-19T07:21:43.796Z,5.43
2017-09-19T07:24:11.378Z,4.83
2017-09-19T07:26:38.945Z,5.20
2017-09-19T07:29:06.539Z,4.90
2017-09-19T07:31:34.095Z,5.60
2017-09-19T07:34:01.690Z,6.30
2017-09-19T07:36:29.261Z,7.47
2017-09-19T07:38:57.155Z,6.20
2017-09-19T07:41:24.874Z,6.23
2017-09-19T07:43:52.439Z,6.40
2017-09-19T07:46:20.825Z,5.83
2017-09-19T07:48:49.108Z,5.90
2017-09-19T07:51:16.793Z,6.40
2017-09-19T07:53:44.438Z,7.80
2017-09-19T07:56:12.426Z,6.03
2017-09-19T07:58:40.066Z,7.13
2017-09-19T08:01:07.746Z,6.10
2017-09-19T08:03:35.385Z,6.37
2017-09-19T08:06:03.582Z,6.67
2017-09-19T08:08:31.550Z,6.83
2017-09-19T08:11:00.572Z,6.60
2017-09-19T08:13:28.246Z,6.83
2017-09-19T08:15:55.882Z,7.10
2017-09-19T08:18:23.607Z,7.13
2017-09-19T08:20:51.235Z,7.40
2017-09-19T08:23:18.802Z,7.77
2017-09-19T08:25:46.692Z,6.87
2017-09-19T08:28:18.618Z,7.30
2017-09-19T08:30:46.315Z,7.13
2017-09-19T08:33:13.883Z,7.80
2017-09-19T08:35:41.639Z,8.90
2017-09-19T08:38:09.234Z,8.70
2017-09-19T08:40:36.811Z,9.83
2017-09-19T08:43:04.652Z,8.90
2017-09-19T08:45:32.334Z,9.63
2017-09-19T08:47:59.903Z,9.50
2017-09-19T08:50:27.487Z,9.80
2017-09-19T08:52:55.051Z,8.90
2017-09-19T08:55:22.764Z,9.43
2017-09-19T08:57:50.347Z,8.23
2017-09-19T09:00:18.025Z,8.93
2017-09-19T09:02:45.940Z,9.37
2017-09-19T09:05:13.528Z,9.10
2017-09-19T09:07:41.225Z,8.10
2017-09-19T09:10:08.853Z,7.43
2017-09-19T09:12:36.886Z,9.40
2017-09-19T09:15:04.467Z,8.47
2017-09-19T09:17:32.034Z,7.97
2017-09-19T09:19:59.611Z,8.27
2017-09-19T09:22:27.181Z,7.87
2017-09-19T09:24:54.752Z,8.37
2017-09-19T09:27:22.330Z,7.00
2017-09-19T09:29:50.224Z,6.70
2017-09-19T09:32:17.804Z,6.93
2017-09-19T09:34:45.374Z,7.30
2017-09-19T09:37:12.967Z,7.37
2017-09-19T09:39:40.524Z,7.23
2017-09-19T09:42:08.108Z,6.83
2017-09-19T09:44:35.679Z,7.33
2017-09-19T09:47:03.294Z,6.87
2017-09-19T09:49:30.852Z,7.27
2017-09-19T09:51:58.628Z,7.30
2017-09-19T09:54:26.193Z,7.30
2017-09-19T09:56:54.158Z,7.40
2017-09-19T09:59:21.735Z,7.37
2017-09-19T10:01:49.299Z,6.97
2017-09-19T10:04:16.862Z,7.40
2017-09-19T10:06:44.444Z,6.97
2017-09-19T10:09:12.019Z,5.63
2017-09-19T10:11:39.567Z,5.50
2017-09-19T10:14:07.143Z,5.90
2017-09-19T10:16:34.698Z,6.17
2017-09-19T10:19:02.558Z,5.57
2017-09-19T10:21:30.127Z,6.07
2017-09-19T10:23:57.688Z,6.13
2017-09-19T10:26:25.272Z,5.80
2017-09-19T10:28:53.221Z,5.40
2017-09-19T10:31:20.814Z,6.67
2017-09-19T10:33:48.651Z,6.03
2017-09-19T10:36:16.280Z,6.10
2017-09-19T10:38:44.176Z,5.70
2017-09-19T10:41:11.732Z,5.97
2017-09-19T10:43:39.296Z,7.00
2017-09-19T10:46:06.892Z,6.23
2017-09-19T10:48:34.437Z,6.37
2017-09-19T10:51:04.702Z,6.70
2017-09-19T10:53:32.413Z,6.20
2017-09-19T10:55:59.969Z,5.80
2017-09-19T10:58:27.569Z,6.10
2017-09-19T11:00:55.138Z,5.13
2017-09-19T11:03:22.724Z,4.73
2017-09-19T11:05:50.691Z,5.40
2017-09-19T11:08:18.248Z,6.20
2017-09-19T11:10:45.826Z,6.77
2017-09-19T11:13:13.429Z,7.07
2017-09-19T11:15:40.985Z,6.17
2017-09-19T11:18:09.079Z,5.40
2017-09-19T11:20:36.695Z,6.43
2017-09-19T11:23:04.255Z,5.20
2017-09-19T11:25:31.875Z,4.27
2017-09-19T11:27:59.452Z,4.10
2017-09-19T11:30:27.348Z,3.47
2017-09-19T11:32:55.241Z,4.73
2017-09-19T11:35:22.792Z,4.73
2017-09-19T11:37:50.386Z,4.90
2017-09-19T11:40:17.970Z,4.20
2017-09-19T11:42:45.793Z,3.83
2017-09-19T11:45:13.334Z,4.50
2017-09-19T11:47:40.932Z,5.03
2017-09-19T11:50:08.568Z,4.50
2017-09-19T11:52:36.224Z,5.00
2017-09-19T11:55:03.961Z,4.20
2017-09-19T11:57:31.518Z,3.60
2017-09-19T11:59:59.408Z,3.43
2017-09-19T12:02:27.077Z,3.67
2017-09-19T12:04:54.658Z,4.03
2017-09-19T12:07:22.284Z,4.20
2017-09-19T12:09:51.001Z,3.50
2017-09-19T12:12:18.598Z,3.90
2017-09-19T12:14:46.156Z,3.63
2017-09-19T12:17:14.047Z,3.43
2017-09-19T12:19:41.629Z,3.30
2017-09-19T12:22:09.204Z,4.07
2017-09-19T12:24:36.830Z,3.40
2017-09-19T12:27:04.465Z,4.00
2017-09-19T12:29:32.067Z,3.70
2017-09-19T12:31:59.622Z,4.43
2017-09-19T12:34:27.591Z,3.73
2017-09-19T12:36:55.350Z,4.10
2017-09-19T12:39:23.084Z,3.57
2017-09-19T12:41:50.657Z,3.33
2017-09-19T12:44:18.226Z,3.10
2017-09-19T12:46:45.855Z,3.00
2017-09-19T12:49:13.398Z,3.30
2017-09-19T12:51:41.340Z,3.63
2017-09-19T12:54:08.945Z,3.33
2017-09-19T12:56:36.525Z,3.70
2017-09-19T12:59:04.122Z,3.27
2017-09-19T13:01:31.708Z,3.50
2017-09-19T13:03:59.365Z,3.33
2017-09-19T13:06:26.931Z,3.07
2017-09-19T13:08:55.929Z,3.23
2017-09-19T13:11:23.503Z,3.93
2017-09-19T13:13:51.608Z,3.50
2017-09-19T13:16:19.206Z,4.03
2017-09-19T13:18:46.776Z,3.27
2017-09-19T13:21:14.362Z,3.20
2017-09-19T13:23:41.933Z,3.50
2017-09-19T13:26:09.821Z,3.00
2017-09-19T13:28:37.370Z,3.00
2017-09-19T13:31:17.049Z,2.93
2017-09-19T13:33:51.211Z,2.90
2017-09-19T13:36:19.114Z,3.43
2017-09-19T13:38:46.921Z,3.10
2017-09-19T13:41:14.521Z,3.27
2017-09-19T13:43:42.121Z,2.40
2017-09-19T13:46:10.986Z,3.43
2017-09-19T13:48:38.962Z,3.40
2017-09-19T13:51:06.538Z,3.33
2017-09-19T13:53:34.579Z,2.53
2017-09-19T13:56:02.587Z,2.67
2017-09-19T13:58:30.131Z,3.80
2017-09-19T14:00:57.689Z,3.40
2017-09-19T14:03:26.373Z,3.60
2017-09-19T14:05:54.851Z,2.53
2017-09-19T14:08:22.454Z,3.00
2017-09-19T14:10:50.522Z,2.70
2017-09-19T14:13:18.117Z,2.47
2017-09-19T14:15:45.711Z,2.40
2017-09-19T14:18:13.276Z,2.40
2017-09-19T14:20:40.928Z,5.17
2017-09-19T14:23:08.920Z,10.20
2017-09-19T14:25:36.480Z,3.43
2017-09-19T14:28:04.075Z,2.50
2017-09-19T14:30:31.648Z,2.97
2017-09-19T14:32:59.220Z,2.80
2017-09-19T14:35:27.310Z,2.60
2017-09-19T14:37:54.932Z,2.67
2017-09-19T14:40:22.504Z,2.77
2017-09-19T14:42:50.592Z,2.50
2017-09-19T14:45:18.161Z,2.70
2017-09-19T14:47:45.764Z,2.13
2017-09-19T14:50:13.351Z,2.23
2017-09-19T14:52:40.957Z,2.70
2017-09-19T14:55:09.018Z,2.17
2017-09-19T14:57:36.593Z,2.17
2017-09-19T15:00:04.167Z,2.00
2017-09-19T15:02:31.765Z,2.07
2017-09-19T15:04:59.414Z,2.30
2017-09-19T15:07:27.438Z,1.90
2017-09-19T15:09:55.049Z,2.13
2017-09-19T15:12:22.627Z,2.33
2017-09-19T15:14:50.246Z,2.23
2017-09-19T15:17:17.812Z,2.13
2017-09-19T15:19:45.431Z,2.03
2017-09-19T15:22:12.980Z,2.40
2017-09-19T15:24:40.864Z,2.40
2017-09-19T15:27:08.430Z,2.80
2017-09-19T15:29:35.986Z,2.60
2017-09-19T15:32:03.563Z,2.20
2017-09-19T15:34:32.442Z,2.40
2017-09-19T15:37:00.412Z,2.40
2017-09-19T15:39:28.116Z,2.70
2017-09-19T15:41:55.690Z,2.57
2017-09-19T15:44:23.575Z,2.50
2017-09-19T15:46:51.334Z,2.40
2017-09-19T15:49:19.216Z,3.60
2017-09-19T15:51:46.775Z,5.80
2017-09-19T15:54:14.353Z,3.50
2017-09-19T15:56:41.944Z,2.63
2017-09-19T15:59:09.689Z,3.20
2017-09-19T16:01:37.822Z,2.70
2017-09-19T16:04:05.403Z,3.20
2017-09-19T16:06:32.987Z,2.30
2017-09-19T16:09:00.588Z,2.70
2017-09-19T16:11:28.165Z,2.47
2017-09-19T16:13:56.140Z,2.33
2017-09-19T16:16:23.714Z,3.00
2017-09-19T16:18:51.429Z,4.20
2017-09-19T16:21:19.013Z,5.27
2017-09-19T16:23:46.561Z,5.77
2017-09-19T16:26:14.458Z,5.70
2017-09-19T16:28:42.017Z,5.93
2017-09-19T16:31:09.633Z,4.77
2017-09-19T16:33:37.306Z,3.33
2017-09-19T16:36:04.910Z,3.13
2017-09-19T16:38:32.506Z,3.23
2017-09-19T16:41:00.110Z,2.50
2017-09-19T16:43:27.973Z,2.97
2017-09-19T16:45:55.627Z,2.80
2017-09-19T16:48:23.210Z,2.87
2017-09-19T16:50:50.801Z,3.07
2017-09-19T16:53:18.413Z,2.63
2017-09-19T16:55:46.624Z,2.70
2017-09-19T16:58:14.206Z,2.60
2017-09-19T17:00:41.774Z,2.50
2017-09-19T17:03:09.546Z,2.40
2017-09-19T17:05:37.210Z,2.47
2017-09-19T17:08:05.278Z,2.50
2017-09-19T17:10:32.864Z,2.60
2017-09-19T17:13:01.213Z,2.47
2017-09-19T17:15:28.794Z,2.50
2017-09-19T17:17:56.371Z,2.97
2017-09-19T17:20:24.023Z,2.90
2017-09-19T17:22:52.025Z,2.53
2017-09-19T17:25:19.938Z,2.40
2017-09-19T17:27:47.593Z,2.30
2017-09-19T17:30:15.312Z,2.23
2017-09-19T17:32:42.910Z,2.53
2017-09-19T17:35:10.499Z,2.70
2017-09-19T17:37:39.474Z,2.50
2017-09-19T17:40:07.163Z,3.70
2017-09-19T17:42:34.733Z,2.83
2017-09-19T17:45:02.337Z,4.00
2017-09-19T17:47:29.899Z,4.03
2017-09-19T17:49:57.864Z,3.40
2017-09-19T17:52:25.435Z,3.40
2017-09-19T17:54:53.012Z,3.30
2017-09-19T17:57:20.630Z,3.53
2017-09-19T17:59:48.219Z,3.57
2017-09-19T18:02:16.178Z,4.80
2017-09-19T18:04:43.914Z,5.20
2017-09-19T18:07:11.480Z,6.00
2017-09-19T18:09:39.098Z,5.97
2017-09-19T18:12:06.810Z,6.50
2017-09-19T18:14:34.405Z,4.80
2017-09-19T18:17:02.090Z,4.10
2017-09-19T18:19:29.676Z,4.77
2017-09-19T18:21:57.685Z,4.67
2017-09-19T18:24:25.307Z,6.50
2017-09-19T18:26:53.056Z,6.60
2017-09-19T18:29:20.995Z,6.67
2017-09-19T18:31:48.586Z,4.90
2017-09-19T18:34:16.179Z,5.73
2017-09-19T18:36:44.133Z,4.70
2017-09-19T18:39:11.833Z,4.63
2017-09-19T18:41:39.567Z,5.00
2017-09-19T18:44:07.238Z,4.50
2017-09-19T18:46:34.847Z,4.80
2017-09-19T18:49:02.953Z,4.90
2017-09-19T18:51:30.780Z,4.63
2017-09-19T18:53:58.514Z,4.60
2017-09-19T18:56:26.465Z,4.37
2017-09-19T18:58:54.879Z,4.77
2017-09-19T19:01:22.730Z,5.03
2017-09-19T19:03:50.603Z,4.90
2017-09-19T19:06:18.888Z,4.40
2017-09-19T19:08:46.541Z,4.33
2017-09-19T19:11:14.410Z,4.40
2017-09-19T19:13:42.273Z,4.37
2017-09-19T19:16:10.139Z,3.70
2017-09-19T19:18:37.918Z,4.47
2017-09-19T19:21:05.769Z,4.27
2017-09-19T19:23:34.150Z,4.20
2017-09-19T19:26:02.118Z,4.20
2017-09-19T19:28:30.336Z,4.20
2017-09-19T19:30:58.273Z,3.93
2017-09-19T19:33:26.038Z,4.40
2017-09-19T19:35:54.106Z,4.00
2017-09-19T19:38:21.954Z,4.47
2017-09-19T19:40:49.719Z,4.33
2017-09-19T19:43:17.645Z,5.10
2017-09-19T19:45:45.266Z,5.13
2017-09-19T19:48:13.161Z,3.97
2017-09-19T19:50:40.790Z,4.57
2017-09-19T19:53:08.854Z,4.50
2017-09-19T19:55:36.644Z,4.23
2017-09-19T19:58:04.331Z,4.87
2017-09-19T20:00:32.298Z,4.03
2017-09-19T20:02:59.907Z,4.50
2017-09-19T20:05:27.546Z,4.13
2017-09-19T20:07:55.189Z,4.30
2017-09-19T20:10:22.806Z,4.60
2017-09-19T20:12:51.387Z,4.73
2017-09-19T20:15:19.104Z,4.40
2017-09-19T20:17:46.970Z,4.57
2017-09-19T20:20:14.636Z,4.07
2017-09-19T20:22:42.224Z,4.40
2017-09-19T20:25:09.838Z,4.63
2017-09-19T20:27:37.446Z,4.07
2017-09-19T20:30:05.232Z,3.40
2017-09-19T20:32:32.908Z,3.50
2017-09-19T20:35:01.027Z,3.63
2017-09-19T20:37:28.610Z,3.87
2017-09-19T20:39:56.211Z,3.33
2017-09-19T20:42:23.820Z,3.70
2017-09-19T20:44:51.383Z,3.60
2017-09-19T20:47:19.136Z,3.30
2017-09-19T20:49:46.706Z,3.40
2017-09-19T20:52:14.709Z,3.40
2017-09-19T20:54:42.298Z,3.13
2017-09-19T20:57:09.858Z,3.13
2017-09-19T20:59:37.455Z,2.97
2017-09-19T21:02:05.160Z,3.37
2017-09-19T21:04:38.245Z,3.30
2017-09-19T21:07:11.469Z,3.00
2017-09-19T21:09:44.859Z,3.20
2017-09-19T21:12:17.966Z,3.40
2017-09-19T21:14:51.140Z,2.67
2017-09-19T21:17:24.408Z,3.13
2017-09-19T21:19:53.913Z,3.10
2017-09-19T21:22:29.259Z,3.10
2017-09-19T21:24:58.140Z,3.00
2017-09-19T21:27:25.736Z,3.13
2017-09-19T21:29:53.304Z,3.57
2017-09-19T21:32:21.130Z,3.77
2017-09-19T21:34:48.792Z,3.63
2017-09-19T21:37:16.388Z,3.60
2017-09-19T21:39:44.013Z,4.20
2017-09-19T21:42:11.602Z,3.07
2017-09-19T21:44:39.465Z,3.47
2017-09-19T21:47:08.307Z,2.73
2017-09-19T21:49:35.872Z,3.83
2017-09-19T21:52:03.470Z,3.70
2017-09-19T21:54:31.247Z,3.50
2017-09-19T21:56:59.185Z,3.57
2017-09-19T21:59:26.863Z,3.40
2017-09-19T22:01:54.445Z,3.00
2017-09-19T22:04:22.192Z,3.00
2017-09-19T22:06:49.777Z,2.93
2017-09-19T22:09:17.621Z,3.17
2017-09-19T22:11:45.192Z,3.00
2017-09-19T22:14:12.765Z,3.23
2017-09-19T22:16:40.356Z,2.95
2017-09-19T22:19:07.932Z,3.27
2017-09-19T22:21:35.808Z,2.90
2017-09-19T22:24:03.403Z,3.13
2017-09-19T22:26:30.958Z,3.23
2017-09-19T22:28:58.512Z,3.47
2017-09-19T22:31:26.094Z,3.37
2017-09-19T22:33:53.948Z,3.57
2017-09-19T22:36:21.690Z,3.40
2017-09-19T22:38:49.261Z,3.43
2017-09-19T22:41:16.883Z,3.90
2017-09-19T22:43:45.943Z,4.17
2017-09-19T22:46:13.963Z,3.40
2017-09-19T22:48:41.545Z,3.30
2017-09-19T22:51:09.128Z,3.83
2017-09-19T22:53:36.749Z,4.20
2017-09-19T22:56:04.553Z,3.80
2017-09-19T22:58:32.507Z,4.00
2017-09-19T23:01:00.170Z,4.33
2017-09-19T23:03:27.722Z,4.00
2017-09-19T23:05:55.329Z,3.90
2017-09-19T23:08:22.929Z,4.27
2017-09-19T23:10:50.898Z,4.03
2017-09-19T23:13:18.450Z,4.30
2017-09-19T23:15:46.031Z,4.27
2017-09-19T23:18:13.605Z,4.50
2017-09-19T23:20:41.136Z,4.50
2017-09-19T23:23:09.001Z,4.87
2017-09-19T23:25:36.549Z,4.60
2017-09-19T23:28:04.146Z,4.60
2017-09-19T23:30:31.803Z,5.47
2017-09-19T23:32:59.382Z,5.10
2017-09-19T23:35:27.295Z,5.10
2017-09-19T23:37:54.840Z,5.10
2017-09-19T23:40:22.429Z,4.97
2017-09-19T23:42:50.023Z,5.40
2017-09-19T23:45:18.199Z,5.60
2017-09-19T23:47:46.299Z,5.40
2017-09-19T23:50:13.876Z,5.73
2017-09-19T23:52:41.468Z,5.93
2017-09-19T23:55:09.231Z,6.00
2017-09-19T23:57:36.823Z,6.07
